createdAt,value
2022-08-26T00:02:20.717Z,25.03
2022-08-26T00:04:50.992Z,25.04
2022-08-26T00:07:20.709Z,25.00
2022-08-26T00:09:54.498Z,24.96
2022-08-26T00:12:27.895Z,24.88
2022-08-26T00:15:08.139Z,24.78
2022-08-26T00:17:40.394Z,24.68
2022-08-26T00:20:12.575Z,24.57
2022-08-26T00:22:43.632Z,24.49
2022-08-26T00:25:17.969Z,24.42
2022-08-26T00:27:48.205Z,24.42
2022-08-26T00:30:22.910Z,24.38
2022-08-26T00:32:54.209Z,24.34
2022-08-26T00:35:25.263Z,24.28
2022-08-26T00:37:57.778Z,24.23
2022-08-26T00:40:32.540Z,24.21
2022-08-26T00:43:02.990Z,24.19
2022-08-26T00:45:45.177Z,24.16
2022-08-26T00:48:17.137Z,24.16
2022-08-26T00:50:53.143Z,24.24
2022-08-26T00:53:26.392Z,24.26
2022-08-26T00:56:03.716Z,24.31
2022-08-26T00:58:35.106Z,24.37
2022-08-26T01:01:05.220Z,24.43
2022-08-26T01:03:36.726Z,24.46
2022-08-26T01:06:12.497Z,24.45
2022-08-26T01:08:43.182Z,24.41
2022-08-26T01:11:16.288Z,24.39
2022-08-26T01:13:47.489Z,24.38
2022-08-26T01:16:18.661Z,24.37
2022-08-26T01:18:50.564Z,24.30
2022-08-26T01:21:26.170Z,24.25
2022-08-26T01:23:59.389Z,24.22
2022-08-26T01:26:31.261Z,24.19
2022-08-26T01:29:03.509Z,24.15
2022-08-26T01:31:39.079Z,24.10
2022-08-26T01:34:11.299Z,24.05
2022-08-26T01:36:41.346Z,24.01
2022-08-26T01:39:14.482Z,23.96
2022-08-26T01:41:44.291Z,23.92
2022-08-26T01:44:21.853Z,23.91
2022-08-26T01:46:52.956Z,23.85
2022-08-26T01:49:23.973Z,23.81
2022-08-26T01:51:58.359Z,23.80
2022-08-26T01:54:30.882Z,23.76
2022-08-26T01:57:00.539Z,23.72
2022-08-26T01:59:32.594Z,23.70
2022-08-26T02:02:02.514Z,23.67
2022-08-26T02:04:35.189Z,23.63
2022-08-26T02:07:07.340Z,23.61
2022-08-26T02:09:41.213Z,23.61
2022-08-26T02:12:12.183Z,23.60
2022-08-26T02:14:44.561Z,23.59
2022-08-26T02:17:15.349Z,23.58
2022-08-26T02:19:51.961Z,23.60
2022-08-26T02:22:24.697Z,23.59
2022-08-26T02:24:59.222Z,23.61
2022-08-26T02:27:32.836Z,23.60
2022-08-26T02:30:03.820Z,23.56
2022-08-26T02:32:35.095Z,23.53
2022-08-26T02:35:05.150Z,23.57
2022-08-26T02:37:35.557Z,23.60
2022-08-26T02:40:10.239Z,23.61
2022-08-26T02:42:40.170Z,23.58
2022-08-26T02:45:13.368Z,23.55
2022-08-26T02:47:46.801Z,23.51
2022-08-26T02:50:16.680Z,23.45
2022-08-26T02:52:46.411Z,23.40
2022-08-26T02:55:19.668Z,23.35
2022-08-26T02:57:49.691Z,23.28
2022-08-26T03:00:19.933Z,23.21
2022-08-26T03:02:50.309Z,23.19
2022-08-26T03:05:22.137Z,23.18
2022-08-26T03:07:53.990Z,23.14
2022-08-26T03:10:26.556Z,23.13
2022-08-26T03:12:56.934Z,23.07
2022-08-26T03:15:27.771Z,23.04
2022-08-26T03:17:58.654Z,23.02
2022-08-26T03:20:29.095Z,22.98
2022-08-26T03:22:58.775Z,22.95
2022-08-26T03:25:31.301Z,22.93
2022-08-26T03:28:01.124Z,22.90
2022-08-26T03:30:45.039Z,22.88
2022-08-26T03:33:16.322Z,22.77
2022-08-26T03:35:47.881Z,22.68
2022-08-26T03:38:21.517Z,22.58
2022-08-26T03:40:56.318Z,22.52
2022-08-26T03:43:27.631Z,22.50
2022-08-26T03:45:57.314Z,22.47
2022-08-26T03:48:27.282Z,22.46
2022-08-26T03:50:56.981Z,22.48
2022-08-26T03:53:27.218Z,22.50
2022-08-26T03:56:00.216Z,22.57
2022-08-26T03:58:31.076Z,22.67
2022-08-26T04:01:00.972Z,22.83
2022-08-26T04:03:43.392Z,23.01
2022-08-26T04:06:13.333Z,23.12
2022-08-26T04:08:43.401Z,23.21
2022-08-26T04:11:19.586Z,23.32
2022-08-26T04:13:50.117Z,23.38
2022-08-26T04:16:21.117Z,23.43
2022-08-26T04:18:52.728Z,23.47
2022-08-26T04:21:22.677Z,23.53
2022-08-26T04:23:52.941Z,23.56
2022-08-26T04:26:26.130Z,23.59
2022-08-26T04:28:57.042Z,23.63
2022-08-26T04:31:26.760Z,23.65
2022-08-26T04:34:00.623Z,23.67
2022-08-26T04:36:30.324Z,23.71
2022-08-26T04:39:00.278Z,23.73
2022-08-26T04:41:33.116Z,23.73
2022-08-26T04:44:02.828Z,23.74
2022-08-26T04:46:32.899Z,23.76
2022-08-26T04:49:02.633Z,23.78
2022-08-26T04:51:33.402Z,23.80
2022-08-26T04:54:03.195Z,23.82
2022-08-26T04:56:40.418Z,23.85
2022-08-26T04:59:16.691Z,23.88
2022-08-26T05:01:48.890Z,23.88
2022-08-26T05:04:20.134Z,23.89
2022-08-26T05:06:49.921Z,23.90
2022-08-26T05:09:20.175Z,23.91
2022-08-26T05:11:52.592Z,23.92
2022-08-26T05:14:23.261Z,23.94
2022-08-26T05:16:54.037Z,23.90
2022-08-26T05:19:23.946Z,23.87
2022-08-26T05:21:54.239Z,23.87
2022-08-26T05:24:24.731Z,23.78
2022-08-26T05:26:57.293Z,23.59
2022-08-26T05:29:26.890Z,23.34
2022-08-26T05:31:56.503Z,23.12
2022-08-26T05:34:30.107Z,22.92
2022-08-26T05:37:00.378Z,22.74
2022-08-26T05:39:30.006Z,22.61
2022-08-26T05:42:04.137Z,22.52
2022-08-26T05:44:53.632Z,22.44
2022-08-26T05:47:23.367Z,22.38
2022-08-26T05:49:53.041Z,22.31
2022-08-26T05:52:25.878Z,22.28
2022-08-26T05:54:55.646Z,22.25
2022-08-26T05:57:27.895Z,22.23
2022-08-26T05:59:58.055Z,22.22
2022-08-26T06:02:28.524Z,22.22
2022-08-26T06:04:58.220Z,22.23
2022-08-26T06:07:47.869Z,22.23
2022-08-26T06:10:33.476Z,22.20
2022-08-26T06:13:11.549Z,22.18
2022-08-26T06:15:45.595Z,22.16
2022-08-26T06:18:16.855Z,22.17
2022-08-26T06:20:56.913Z,22.17
2022-08-26T06:23:40.510Z,22.21
2022-08-26T06:26:11.032Z,22.23
2022-08-26T06:28:45.537Z,22.24
2022-08-26T06:31:15.926Z,22.26
2022-08-26T06:33:46.253Z,22.29
2022-08-26T06:36:20.579Z,22.33
2022-08-26T06:38:51.349Z,22.35
2022-08-26T06:41:22.767Z,22.39
2022-08-26T06:43:55.091Z,22.43
2022-08-26T06:46:26.053Z,22.52
2022-08-26T06:48:58.187Z,22.56
2022-08-26T06:51:29.718Z,22.60
2022-08-26T06:54:02.016Z,22.61
2022-08-26T06:56:36.113Z,22.61
2022-08-26T06:59:08.970Z,22.62
2022-08-26T07:01:43.033Z,22.62
2022-08-26T07:04:15.536Z,22.59
2022-08-26T07:06:48.892Z,22.57
2022-08-26T07:09:19.520Z,22.55
2022-08-26T07:11:49.278Z,22.52
2022-08-26T07:14:22.090Z,22.53
2022-08-26T07:16:52.379Z,22.55
2022-08-26T07:19:31.210Z,22.64
2022-08-26T07:22:02.392Z,22.76
2022-08-26T07:24:35.144Z,22.86
2022-08-26T07:27:06.595Z,22.91
2022-08-26T07:29:39.710Z,22.95
2022-08-26T07:32:09.852Z,23.02
2022-08-26T07:34:40.172Z,23.07
2022-08-26T07:37:11.685Z,23.07
2022-08-26T07:39:43.240Z,23.06
2022-08-26T07:42:15.713Z,23.07
2022-08-26T07:44:50.751Z,23.11
2022-08-26T07:47:25.716Z,23.11
2022-08-26T07:49:57.413Z,23.13
2022-08-26T07:52:28.088Z,23.13
2022-08-26T07:54:58.455Z,23.15
2022-08-26T07:57:28.351Z,23.20
2022-08-26T08:00:00.693Z,23.23
2022-08-26T08:02:31.685Z,23.26
2022-08-26T08:05:01.799Z,23.27
2022-08-26T08:07:45.092Z,23.21
2022-08-26T08:10:17.040Z,23.18
2022-08-26T08:12:47.031Z,23.19
2022-08-26T08:15:21.847Z,23.18
2022-08-26T08:17:51.668Z,23.21
2022-08-26T08:20:23.023Z,23.23
2022-08-26T08:22:53.028Z,23.26
2022-08-26T08:25:24.166Z,23.32
2022-08-26T08:27:53.907Z,23.37
2022-08-26T08:30:26.622Z,23.42
2022-08-26T08:32:56.821Z,23.48
2022-08-26T08:35:27.561Z,23.54
2022-08-26T08:37:57.317Z,23.60
2022-08-26T08:40:29.177Z,23.66
2022-08-26T08:43:02.042Z,23.68
2022-08-26T08:45:37.110Z,23.69
2022-08-26T08:48:09.117Z,23.65
2022-08-26T08:50:45.855Z,23.60
2022-08-26T08:53:18.161Z,23.53
2022-08-26T08:55:54.742Z,23.47
2022-08-26T08:58:28.310Z,23.44
2022-08-26T09:01:04.718Z,23.42
2022-08-26T09:03:50.227Z,23.38
2022-08-26T09:06:20.546Z,23.38
2022-08-26T09:08:52.024Z,23.39
2022-08-26T09:11:23.181Z,23.40
2022-08-26T09:13:54.512Z,23.39
2022-08-26T09:16:31.286Z,23.41
2022-08-26T09:19:14.594Z,23.46
2022-08-26T09:21:53.342Z,23.52
2022-08-26T09:24:23.154Z,23.57
2022-08-26T09:26:59.243Z,23.62
2022-08-26T09:29:30.894Z,23.64
2022-08-26T09:35:01.369Z,23.77
2022-08-26T09:37:40.275Z,23.85
2022-08-26T09:40:22.481Z,23.88
2022-08-26T09:43:09.827Z,23.86
2022-08-26T09:45:41.448Z,23.86
2022-08-26T09:48:32.661Z,23.86
2022-08-26T09:51:09.831Z,23.93
2022-08-26T09:53:53.968Z,24.09
2022-08-26T09:56:28.554Z,24.29
2022-08-26T09:58:59.333Z,24.42
2022-08-26T10:01:33.452Z,24.54
2022-08-26T10:04:10.990Z,24.69
2022-08-26T10:06:46.561Z,24.80
2022-08-26T10:09:19.542Z,24.80
2022-08-26T10:11:52.007Z,24.76
2022-08-26T10:14:25.491Z,24.74
2022-08-26T10:16:58.068Z,24.72
2022-08-26T10:19:55.577Z,24.70
2022-08-26T10:22:26.970Z,24.66
2022-08-26T10:25:00.514Z,24.66
2022-08-26T10:27:37.558Z,24.66
2022-08-26T10:30:13.997Z,24.65
2022-08-26T10:32:48.121Z,24.65
2022-08-26T10:35:19.726Z,24.63
2022-08-26T10:37:56.466Z,24.63
2022-08-26T10:40:28.958Z,24.60
2022-08-26T10:43:02.003Z,24.52
2022-08-26T10:45:41.255Z,24.44
2022-08-26T10:48:14.921Z,24.40
2022-08-26T10:50:47.572Z,24.40
2022-08-26T10:53:24.941Z,24.40
2022-08-26T10:56:00.164Z,24.40
2022-08-26T10:58:44.599Z,24.40
2022-08-26T11:01:28.918Z,24.40
2022-08-26T11:04:06.498Z,24.43
2022-08-26T11:06:37.169Z,24.52
2022-08-26T11:09:11.454Z,24.64
2022-08-26T11:11:48.253Z,24.76
2022-08-26T11:14:41.120Z,24.93
2022-08-26T11:17:53.331Z,25.18
2022-08-26T11:20:35.588Z,25.42
2022-08-26T11:23:37.614Z,25.53
2022-08-26T11:26:37.867Z,25.49
2022-08-26T11:29:13.907Z,25.44
2022-08-26T11:31:58.537Z,25.36
2022-08-26T11:34:55.042Z,25.26
2022-08-26T11:37:32.506Z,25.24
2022-08-26T11:40:04.141Z,25.22
2022-08-26T11:42:40.611Z,25.24
2022-08-26T11:45:20.877Z,25.26
2022-08-26T11:47:50.561Z,25.33
2022-08-26T11:50:23.410Z,25.39
2022-08-26T11:53:01.790Z,25.46
2022-08-26T11:55:32.692Z,25.50
2022-08-26T11:58:07.670Z,25.54
2022-08-26T12:00:53.213Z,25.62
2022-08-26T12:03:25.610Z,25.66
2022-08-26T12:05:57.336Z,25.60
2022-08-26T12:08:31.190Z,25.54
2022-08-26T12:11:06.996Z,25.49
2022-08-26T12:13:39.536Z,25.44
2022-08-26T12:16:09.746Z,25.49
2022-08-26T12:18:41.634Z,25.64
2022-08-26T12:21:16.844Z,25.81
2022-08-26T12:23:50.092Z,25.98
2022-08-26T12:26:25.743Z,26.07
2022-08-26T12:29:00.900Z,26.09
2022-08-26T12:31:33.953Z,26.10
2022-08-26T12:34:06.439Z,26.14
2022-08-26T12:36:49.649Z,26.28
2022-08-26T12:39:30.453Z,26.44
2022-08-26T12:42:01.293Z,26.58
2022-08-26T12:44:38.964Z,26.61
2022-08-26T12:47:11.980Z,26.59
2022-08-26T12:49:43.040Z,26.56
2022-08-26T12:52:30.067Z,26.53
2022-08-26T12:55:02.917Z,26.47
2022-08-26T12:57:35.217Z,26.38
2022-08-26T13:00:35.465Z,26.31
2022-08-26T13:03:05.426Z,26.28
2022-08-26T13:05:37.972Z,26.18
2022-08-26T13:08:18.690Z,26.23
2022-08-26T13:10:49.980Z,26.26
2022-08-26T13:13:19.671Z,26.32
2022-08-26T13:15:52.531Z,26.43
2022-08-26T13:18:22.200Z,26.51
2022-08-26T13:20:51.852Z,26.57
2022-08-26T13:23:22.039Z,26.59
2022-08-26T13:25:51.932Z,26.57
2022-08-26T13:28:21.935Z,26.59
2022-08-26T13:30:54.212Z,26.62
2022-08-26T13:33:23.909Z,26.62
2022-08-26T13:35:54.835Z,26.52
2022-08-26T13:38:33.752Z,26.48
2022-08-26T13:41:04.811Z,26.46
2022-08-26T13:43:35.666Z,26.34
2022-08-26T13:46:08.426Z,26.25
2022-08-26T13:48:38.277Z,26.17
2022-08-26T13:51:10.823Z,26.09
2022-08-26T13:53:41.546Z,25.95
2022-08-26T13:56:11.768Z,25.75
2022-08-26T13:58:41.458Z,25.49
2022-08-26T14:01:13.931Z,25.30
2022-08-26T14:03:43.948Z,25.14
2022-08-26T14:06:13.728Z,25.07
2022-08-26T14:08:44.126Z,25.00
2022-08-26T14:11:14.160Z,24.95
2022-08-26T14:13:43.829Z,24.94
2022-08-26T14:16:23.807Z,24.94
2022-08-26T14:18:53.452Z,24.98
2022-08-26T14:21:23.327Z,24.99
2022-08-26T14:23:52.965Z,24.98
2022-08-26T14:26:29.102Z,25.01
2022-08-26T14:28:59.795Z,25.00
2022-08-26T14:31:33.080Z,25.03
2022-08-26T14:34:04.641Z,25.03
2022-08-26T14:36:35.276Z,25.03
2022-08-26T14:39:07.043Z,25.04
2022-08-26T14:41:54.610Z,25.03
2022-08-26T14:44:26.512Z,25.06
2022-08-26T14:46:59.399Z,25.08
2022-08-26T14:49:31.211Z,25.07
2022-08-26T14:52:01.279Z,24.99
2022-08-26T14:54:29.519Z,24.86
2022-08-26T14:57:01.051Z,24.73
2022-08-26T14:59:32.279Z,24.62
2022-08-26T15:02:04.664Z,24.57
2022-08-26T15:04:34.716Z,24.53
2022-08-26T15:07:04.746Z,24.51
2022-08-26T15:09:37.394Z,24.55
2022-08-26T15:12:07.995Z,24.54
2022-08-26T15:14:37.654Z,24.50
2022-08-26T15:17:10.086Z,24.43
2022-08-26T15:19:39.749Z,24.36
2022-08-26T15:22:09.377Z,24.30
2022-08-26T15:24:39.096Z,24.32
2022-08-26T15:27:09.083Z,24.42
2022-08-26T15:29:39.080Z,24.59
2022-08-26T15:32:11.377Z,24.75
2022-08-26T15:34:41.027Z,24.83
2022-08-26T15:37:10.865Z,24.86
2022-08-26T15:39:41.054Z,24.91
2022-08-26T15:42:11.110Z,24.87
2022-08-26T15:44:40.752Z,24.78
2022-08-26T15:47:13.241Z,24.69
2022-08-26T15:49:42.891Z,24.63
2022-08-26T15:52:12.528Z,24.55
2022-08-26T15:54:42.292Z,24.43
2022-08-26T15:57:15.362Z,24.30
2022-08-26T15:59:46.281Z,24.21
2022-08-26T16:02:18.674Z,24.11
2022-08-26T16:04:48.304Z,24.03
2022-08-26T16:07:17.975Z,23.96
2022-08-26T16:09:49.056Z,23.89
2022-08-26T16:12:24.150Z,23.78
2022-08-26T16:14:54.070Z,23.73
2022-08-26T16:17:26.355Z,23.69
2022-08-26T16:19:56.278Z,23.66
2022-08-26T16:22:27.239Z,23.63
2022-08-26T16:24:59.628Z,23.62
2022-08-26T16:27:29.300Z,23.61
2022-08-26T16:29:58.931Z,23.54
2022-08-26T16:32:31.427Z,23.45
2022-08-26T16:35:01.585Z,23.35
2022-08-26T16:37:31.186Z,23.23
2022-08-26T16:40:00.906Z,23.10
2022-08-26T16:42:30.601Z,22.97
2022-08-26T16:45:00.268Z,22.85
2022-08-26T16:47:33.016Z,22.75
2022-08-26T16:50:02.949Z,22.67
2022-08-26T16:52:32.647Z,22.61
2022-08-26T16:55:02.522Z,22.57
2022-08-26T16:57:32.138Z,22.53
2022-08-26T17:00:01.828Z,22.48
2022-08-26T17:02:34.201Z,22.42
2022-08-26T17:05:03.860Z,22.38
2022-08-26T17:07:35.474Z,22.34
2022-08-26T17:10:05.138Z,22.29
2022-08-26T17:12:34.737Z,22.27
2022-08-26T17:15:04.570Z,22.24
2022-08-26T17:17:37.302Z,22.21
2022-08-26T17:20:12.645Z,22.18
2022-08-26T17:22:43.809Z,22.16
2022-08-26T17:25:15.025Z,22.12
2022-08-26T17:27:45.745Z,22.10
2022-08-26T17:30:17.260Z,22.09
2022-08-26T17:32:50.130Z,22.06
2022-08-26T17:35:19.777Z,22.04
2022-08-26T17:37:49.404Z,22.03
2022-08-26T17:40:25.212Z,22.00
2022-08-26T17:42:54.910Z,21.94
2022-08-26T17:45:24.934Z,21.91
2022-08-26T17:47:57.637Z,21.88
2022-08-26T17:50:27.261Z,21.85
2022-08-26T17:52:58.261Z,21.83
2022-08-26T17:55:28.058Z,21.79
2022-08-26T17:57:57.880Z,21.76
2022-08-26T18:00:29.205Z,21.73
2022-08-26T18:03:01.479Z,21.70
2022-08-26T18:05:31.272Z,21.70
2022-08-26T18:08:01.010Z,21.66
2022-08-26T18:10:31.422Z,21.64
2022-08-26T18:13:01.369Z,21.63
2022-08-26T18:15:31.096Z,21.58
2022-08-26T18:18:03.325Z,21.53
2022-08-26T18:20:32.945Z,21.51
2022-08-26T18:23:02.552Z,21.50
2022-08-26T18:25:32.197Z,21.46
2022-08-26T18:28:01.902Z,21.44
2022-08-26T18:30:31.569Z,21.42
2022-08-26T18:33:04.425Z,21.38
2022-08-26T18:35:34.112Z,21.34
2022-08-26T18:38:11.322Z,21.31
2022-08-26T18:40:42.280Z,21.27
2022-08-26T18:43:12.297Z,21.25
2022-08-26T18:45:41.972Z,21.26
2022-08-26T18:48:14.718Z,21.23
2022-08-26T18:50:47.330Z,21.21
2022-08-26T18:53:17.628Z,21.18
2022-08-26T18:55:47.294Z,21.12
2022-08-26T18:58:16.924Z,21.12
2022-08-26T19:00:46.557Z,21.11
2022-08-26T19:03:19.271Z,21.10
2022-08-26T19:05:49.102Z,21.09
2022-08-26T19:08:18.736Z,21.05
2022-08-26T19:10:48.449Z,21.05
2022-08-26T19:13:18.233Z,21.02
2022-08-26T19:15:48.474Z,21.01
2022-08-26T19:18:20.726Z,21.00
2022-08-26T19:20:50.598Z,20.99
2022-08-26T19:23:31.459Z,20.99
2022-08-26T19:26:02.099Z,20.96
2022-08-26T19:28:31.775Z,20.94
2022-08-26T19:31:01.691Z,20.95
2022-08-26T19:33:33.928Z,20.94
2022-08-26T19:36:06.318Z,20.92
2022-08-26T19:38:36.612Z,20.91
2022-08-26T19:41:06.368Z,20.90
2022-08-26T19:43:35.992Z,20.88
2022-08-26T19:46:12.837Z,20.88
2022-08-26T19:48:45.822Z,20.87
2022-08-26T19:51:16.363Z,20.86
2022-08-26T19:53:46.361Z,20.85
2022-08-26T19:56:16.536Z,20.83
2022-08-26T19:58:46.830Z,20.80
2022-08-26T20:01:17.940Z,20.78
2022-08-26T20:03:50.640Z,20.76
2022-08-26T20:06:21.209Z,20.75
2022-08-26T20:08:52.128Z,20.74
2022-08-26T20:11:26.046Z,20.73
2022-08-26T20:13:57.168Z,20.71
2022-08-26T20:16:26.816Z,20.68
2022-08-26T20:19:11.589Z,20.65
2022-08-26T20:21:43.150Z,20.63
2022-08-26T20:24:14.606Z,20.61
2022-08-26T20:26:46.393Z,20.56
2022-08-26T20:29:18.265Z,20.55
2022-08-26T20:31:48.150Z,20.51
2022-08-26T20:34:21.207Z,20.48
2022-08-26T20:36:52.244Z,20.45
2022-08-26T20:39:23.604Z,20.45
2022-08-26T20:41:53.302Z,20.41
2022-08-26T20:44:22.909Z,20.38
2022-08-26T20:46:52.549Z,20.34
2022-08-26T20:49:25.010Z,20.32
2022-08-26T20:51:54.756Z,20.23
2022-08-26T20:54:28.526Z,20.18
2022-08-26T20:56:58.168Z,20.14
2022-08-26T20:59:28.708Z,20.07
2022-08-26T21:01:58.313Z,20.06
2022-08-26T21:04:30.623Z,20.04
2022-08-26T21:07:00.275Z,20.01
2022-08-26T21:09:30.279Z,19.98
2022-08-26T21:12:00.352Z,19.95
2022-08-26T21:14:29.943Z,19.91
2022-08-26T21:16:59.605Z,19.89
2022-08-26T21:19:31.860Z,19.88
2022-08-26T21:22:01.709Z,19.85
2022-08-26T21:24:31.385Z,19.83
2022-08-26T21:27:01.109Z,19.78
2022-08-26T21:29:30.730Z,19.74
2022-08-26T21:32:00.381Z,19.71
2022-08-26T21:34:32.625Z,19.66
2022-08-26T21:37:02.224Z,19.63
2022-08-26T21:39:38.570Z,19.60
2022-08-26T21:42:09.654Z,19.58
2022-08-26T21:44:39.276Z,19.56
2022-08-26T21:47:09.389Z,19.55
2022-08-26T21:49:44.123Z,19.53
2022-08-26T21:52:14.302Z,19.49
2022-08-26T21:54:49.313Z,19.42
2022-08-26T21:57:19.700Z,19.33
2022-08-26T21:59:49.292Z,19.25
2022-08-26T22:02:19.053Z,19.19
2022-08-26T22:04:51.597Z,19.17
2022-08-26T22:07:21.854Z,19.14
2022-08-26T22:09:51.500Z,19.05
2022-08-26T22:12:21.138Z,18.96
2022-08-26T22:14:50.748Z,18.87
2022-08-26T22:17:22.570Z,18.80
2022-08-26T22:19:55.172Z,18.72
2022-08-26T22:22:28.611Z,18.65
2022-08-26T22:24:58.222Z,18.57
2022-08-26T22:27:28.147Z,18.51
2022-08-26T22:29:57.856Z,18.48
2022-08-26T22:32:27.493Z,18.48
2022-08-26T22:34:59.697Z,18.51
2022-08-26T22:37:29.450Z,18.54
2022-08-26T22:39:59.193Z,18.55
2022-08-26T22:42:28.993Z,18.56
2022-08-26T22:44:58.638Z,18.56
2022-08-26T22:47:28.374Z,18.56
2022-08-26T22:50:01.609Z,18.55
2022-08-26T22:52:31.301Z,18.52
2022-08-26T22:55:00.927Z,18.50
2022-08-26T22:57:30.669Z,18.47
2022-08-26T23:00:00.565Z,18.42
2022-08-26T23:02:30.270Z,18.37
2022-08-26T23:05:02.505Z,18.34
2022-08-26T23:07:32.116Z,18.30
2022-08-26T23:10:01.625Z,18.25
2022-08-26T23:12:31.446Z,18.24
2022-08-26T23:15:01.300Z,18.21
2022-08-26T23:17:30.869Z,18.18
2022-08-26T23:20:02.998Z,18.16
2022-08-26T23:22:32.530Z,18.15
2022-08-26T23:25:04.534Z,18.13
2022-08-26T23:27:38.159Z,18.14
2022-08-26T23:30:08.709Z,18.12
2022-08-26T23:32:38.309Z,18.13
2022-08-26T23:35:09.508Z,18.12
2022-08-26T23:37:41.753Z,18.08
2022-08-26T23:40:14.539Z,18.05
2022-08-26T23:42:44.136Z,18.01
2022-08-26T23:45:18.377Z,17.96
2022-08-26T23:47:48.463Z,17.92
2022-08-26T23:50:21.067Z,17.89
2022-08-26T23:53:06.202Z,17.89
2022-08-26T23:55:36.472Z,17.89
2022-08-26T23:58:06.152Z,17.90
